Time;durP1;ratioP1;P1;durP2;ratioP2;P2;SDS_P1;SDS_P2;PMS_P1;PMS_P2;Temp;Humidity;BMP_temperature;BMP_pressure;BME280_temperature;BME280_humidity;BME280_pressure;Samples;Min_cycle;Max_cycle;Signal;HPM_P1;HPM_P2
2023/08/12 00:03:55;;;;;;;12.60;3.07;;;;;;;17.49;97.61;101311.84;4973032;57;1141017;-66
2023/08/12 00:09:00;;;;;;;7.40;3.76;;;;;;;17.50;97.60;101310.36;4973157;57;1140869;-66
2023/08/12 00:14:07;;;;;;;7.96;3.88;;;;;;;17.52;97.94;101314.23;4982997;57;1142203;-68
2023/08/12 00:19:13;;;;;;;6.90;4.03;;;;;;;17.47;97.51;101313.32;5001532;56;1139103;-66
2023/08/12 00:24:19;;;;;;;11.88;3.72;;;;;;;17.33;97.36;101312.44;5055878;56;1138806;-66
2023/08/12 00:29:24;;;;;;;4.00;3.67;;;;;;;17.19;97.31;101311.05;5074852;56;1140818;-66
2023/08/12 00:34:30;;;;;;;8.03;3.83;;;;;;;17.02;97.39;101301.56;5041065;56;1138945;-66
2023/08/12 00:39:35;;;;;;;7.13;3.80;;;;;;;16.86;97.58;101303.47;4973203;57;1138662;-65
2023/08/12 00:44:41;;;;;;;16.55;4.60;;;;;;;16.74;98.21;101300.58;4973261;57;1138812;-66
2023/08/12 00:49:47;;;;;;;6.90;4.30;;;;;;;16.62;98.65;101291.83;5047927;56;1140941;-65
2023/08/12 00:54:53;;;;;;;10.23;4.08;;;;;;;16.61;99.71;101291.97;4959749;57;1138886;-66
2023/08/12 00:59:58;;;;;;;6.07;5.00;;;;;;;16.56;99.83;101281.69;5126956;56;1140661;-65
2023/08/12 01:05:05;;;;;;;8.67;4.97;;;;;;;16.47;100.00;101277.20;5146803;56;1138649;-65
2023/08/12 01:10:14;;;;;;;11.80;3.93;;;;;;;16.51;100.00;101280.77;5126704;56;1140904;-66
2023/08/12 01:15:23;;;;;;;7.33;3.35;;;;;;;16.58;100.00;101275.73;5092615;56;1142584;-65
2023/08/12 01:20:30;;;;;;;14.57;4.27;;;;;;;16.60;100.00;101282.27;5120338;56;1140951;-65
2023/08/12 01:25:36;;;;;;;8.53;4.27;;;;;;;16.63;100.00;101279.36;4959142;58;1143021;-65
2023/08/12 01:31:06;;;;;;;8.37;4.40;;;;;;;16.62;100.00;101277.14;5112679;56;1140623;-66
2023/08/12 01:36:18;;;;;;;16.50;4.50;;;;;;;16.63;100.00;101284.70;5115752;56;1140889;-65
2023/08/12 01:41:25;;;;;;;8.80;4.62;;;;;;;16.60;100.00;101281.78;5134228;56;1142836;-66
2023/08/12 01:46:32;;;;;;;12.47;4.50;;;;;;;16.51;100.00;101274.58;5043338;56;1141344;-65
2023/08/12 01:51:37;;;;;;;6.90;3.90;;;;;;;16.46;100.00;101271.50;5121907;56;1142967;-66
2023/08/12 01:56:43;;;;;;;11.47;4.70;;;;;;;16.46;100.00;101271.50;5126711;56;1141113;-65
2023/08/12 02:01:49;;;;;;;6.73;4.50;;;;;;;16.39;100.00;101267.20;4978977;58;1142953;-66
2023/08/12 02:06:55;;;;;;;10.20;5.40;;;;;;;16.30;100.00;101262.70;5127230;56;1140698;-66
2023/08/12 02:12:01;;;;;;;13.23;6.77;;;;;;;16.17;100.00;101260.28;5006703;57;1142897;-66
2023/08/12 02:17:06;;;;;;;10.27;5.30;;;;;;;16.09;100.00;101257.93;5160496;56;1143126;-65
2023/08/12 02:22:12;;;;;;;8.53;4.47;;;;;;;16.04;100.00;101254.84;4941362;58;1143018;-66
2023/08/12 02:27:18;;;;;;;11.77;3.93;;;;;;;16.08;100.00;101248.23;5101825;56;1140926;-65
2023/08/12 02:32:23;;;;;;;6.70;4.15;;;;;;;16.05;100.00;101244.01;5070884;56;1142986;-66
2023/08/12 02:37:29;;;;;;;5.50;3.87;;;;;;;16.09;100.00;101237.42;5127226;56;1141055;-65
2023/08/12 02:42:34;;;;;;;10.97;4.27;;;;;;;16.12;100.00;101237.65;5125108;56;1140751;-66
2023/08/12 02:47:41;;;;;;;8.15;3.92;;;;;;;16.13;100.00;101238.84;5058538;57;1142929;-66
2023/08/12 02:52:47;;;;;;;13.27;4.47;;;;;;;16.08;100.00;101245.08;5061600;57;1140887;-67
2023/08/12 02:57:52;;;;;;;8.77;3.90;;;;;;;16.04;100.00;101246.32;5041824;57;1143050;-66
2023/08/12 03:02:58;;;;;;;14.63;3.90;;;;;;;16.01;100.00;101245.77;5042538;57;1141018;-65
2023/08/12 03:08:04;;;;;;;9.17;4.07;;;;;;;15.96;100.00;101247.50;5062167;56;1142982;-65
2023/08/12 03:13:10;;;;;;;5.27;3.37;;;;;;;15.89;100.00;101253.02;5042395;57;1140866;-67
2023/08/12 03:18:16;;;;;;;7.35;4.03;;;;;;;15.79;100.00;101254.81;5063277;56;1140759;-65
2023/08/12 03:23:22;;;;;;;8.53;3.37;;;;;;;15.68;100.00;101265.09;5133736;56;1140825;-66
2023/08/12 03:28:27;;;;;;;5.35;3.15;;;;;;;15.60;100.00;101257.39;5112980;56;1140687;-65
2023/08/12 03:33:34;;;;;;;11.30;5.53;;;;;;;15.53;100.00;101253.55;5126880;56;1140795;-66
2023/08/12 03:38:41;;;;;;;15.43;7.93;;;;;;;15.46;100.00;101259.41;5117540;56;1143272;-65
2023/08/12 03:43:48;;;;;;;15.27;7.50;;;;;;;15.51;100.00;101259.50;5045057;56;1142713;-66
2023/08/12 03:48:55;;;;;;;14.83;5.03;;;;;;;15.52;100.00;101256.70;5075387;56;1142925;-66
2023/08/12 03:54:01;;;;;;;7.73;3.93;;;;;;;15.43;100.00;101260.15;5068121;56;1143084;-66
2023/08/12 03:59:07;;;;;;;9.73;5.37;;;;;;;15.39;100.00;101274.74;5084264;56;1140928;-65
2023/08/12 04:04:12;;;;;;;14.47;4.70;;;;;;;15.51;100.00;101264.34;5084780;56;1141043;-66
2023/08/12 04:09:20;;;;;;;17.12;4.60;;;;;;;15.55;100.00;101270.27;5146633;56;1142973;-65
2023/08/12 04:14:25;;;;;;;31.50;4.78;;;;;;;15.53;100.00;101264.22;5106894;56;1142779;-66
2023/08/12 04:19:31;;;;;;;7.97;4.40;;;;;;;15.47;100.00;101258.91;4990112;57;1144626;-65
2023/08/12 04:24:36;;;;;;;6.53;3.50;;;;;;;15.46;100.00;101255.89;5074142;56;1140969;-65
2023/08/12 04:29:42;;;;;;;26.03;6.77;;;;;;;15.46;100.00;101255.89;4959520;58;1140830;-66
2023/08/12 04:34:48;;;;;;;12.85;7.30;;;;;;;15.46;100.00;101244.73;5078260;56;1142961;-65
2023/08/12 04:39:54;;;;;;;26.27;6.07;;;;;;;15.46;100.00;101252.73;5062950;56;1142807;-66
2023/08/12 04:45:00;;;;;;;12.63;5.07;;;;;;;15.47;100.00;101258.91;5041446;57;1143125;-66
2023/08/12 04:50:07;;;;;;;8.43;3.83;;;;;;;15.47;100.00;101263.76;5053370;56;1143067;-66
2023/08/12 04:55:13;;;;;;;12.80;4.57;;;;;;;15.51;100.00;101260.84;5110364;56;1141053;-67
2023/08/12 05:00:20;;;;;;;6.37;4.15;;;;;;;15.59;100.00;101260.55;5091756;56;1142659;-66
2023/08/12 05:05:30;;;;;;;8.55;4.42;;;;;;;15.66;100.00;101260.38;4959246;58;1140739;-66
2023/08/12 05:10:36;;;;;;;10.37;4.27;;;;;;;15.74;100.00;101251.20;4978905;58;1140750;-66
2023/08/12 05:15:42;;;;;;;10.40;4.07;;;;;;;15.83;100.00;101249.58;5046855;56;1142927;-66
2023/08/12 05:20:47;;;;;;;8.43;4.53;;;;;;;15.96;100.00;101249.33;5080558;56;1143158;-66
2023/08/12 05:25:53;;;;;;;15.43;7.73;;;;;;;16.09;100.00;101249.44;5090689;56;1141049;-67
2023/08/12 05:30:59;;;;;;;16.03;8.00;;;;;;;16.25;100.00;101242.23;5041892;57;1142719;-66
2023/08/12 05:36:05;;;;;;;8.83;5.67;;;;;;;16.50;100.00;101244.85;5094682;56;1142775;-66
2023/08/12 05:41:10;;;;;;;10.33;4.73;;;;;;;16.79;100.00;101231.56;5069816;56;1140969;-65
2023/08/12 05:46:16;;;;;;;13.93;4.07;;;;;;;16.95;100.00;101217.13;5066525;56;1143250;-66
2023/08/12 05:51:22;;;;;;;3.90;3.27;;;;;;;17.03;100.00;101214.56;5042369;56;1142908;-66
2023/08/12 05:56:28;;;;;;;44.00;19.10;;;;;;;17.10;100.00;101217.52;5062124;56;1140815;-65
2023/08/12 06:01:33;;;;;;;10.90;5.47;;;;;;;17.22;100.00;101226.56;5060279;56;1144896;-66
2023/08/12 06:06:39;;;;;;;29.80;9.97;;;;;;;17.31;100.00;101215.47;5028532;57;1142798;-66
2023/08/12 06:11:44;;;;;;;37.23;15.93;;;;;;;17.36;100.00;101201.19;5041450;57;1142882;-67
2023/08/12 06:16:50;;;;;;;16.47;4.17;;;;;;;17.46;100.00;101197.97;4986842;58;1145041;-66
2023/08/12 06:21:56;;;;;;;17.30;5.27;;;;;;;17.59;100.00;101190.45;4968480;58;1142993;-67
2023/08/12 06:27:01;;;;;;;18.73;5.23;;;;;;;17.70;100.00;101192.64;4968996;58;1142660;-66
2023/08/12 06:32:07;;;;;;;9.93;4.70;;;;;;;17.82;100.00;101198.12;4993133;57;1142949;-66
2023/08/12 06:37:14;;;;;;;8.40;3.90;;;;;;;17.92;100.00;101199.75;5026938;57;1140802;-67
2023/08/12 06:42:19;;;;;;;20.97;13.18;;;;;;;18.03;100.00;101195.16;5048825;57;1140955;-66
2023/08/12 06:47:27;;;;;;;30.08;14.58;;;;;;;18.18;100.00;101197.17;5049031;57;1144891;-66
2023/08/12 06:52:32;;;;;;;7.37;4.08;;;;;;;18.35;100.00;101214.25;4997417;57;1145223;-66
2023/08/12 06:57:38;;;;;;;8.63;5.55;;;;;;;18.51;100.00;101203.69;4967867;58;1140888;-66
2023/08/12 07:02:43;;;;;;;5.08;3.87;;;;;;;18.66;100.00;101189.28;5071400;56;1140827;-67
2023/08/12 07:07:49;;;;;;;5.35;3.27;;;;;;;18.79;100.00;101185.70;4970162;58;1140870;-66
2023/08/12 07:12:55;;;;;;;4.00;3.05;;;;;;;18.92;100.00;101181.30;5047831;56;1140841;-67
2023/08/12 07:18:00;;;;;;;8.00;4.05;;;;;;;19.09;100.00;101173.70;5041555;56;1140749;-66
2023/08/12 07:23:06;;;;;;;10.20;4.55;;;;;;;19.26;100.00;101174.11;5062414;56;1140962;-66
2023/08/12 07:28:12;;;;;;;12.37;6.83;;;;;;;19.46;100.00;101176.57;5042748;56;1142945;-65
2023/08/12 07:33:17;;;;;;;24.37;7.75;;;;;;;19.64;100.00;101180.05;5066260;56;1143158;-66
2023/08/12 07:38:23;;;;;;;21.40;12.35;;;;;;;19.82;100.00;101177.26;5088949;56;1143132;-66
2023/08/12 07:43:28;;;;;;;17.48;5.17;;;;;;;19.99;100.00;101183.02;5041844;57;1145277;-66
2023/08/12 07:48:34;;;;;;;16.37;8.68;;;;;;;20.25;100.00;101177.53;5044605;56;1142790;-66
2023/08/12 07:53:40;;;;;;;7.87;5.12;;;;;;;20.47;99.14;101166.67;5073340;56;1143151;-66
2023/08/12 07:58:45;;;;;;;14.23;5.20;;;;;;;20.68;98.04;101157.08;5059122;56;1138988;-66
2023/08/12 08:03:51;;;;;;;9.57;4.03;;;;;;;20.89;97.60;101157.91;5042544;56;1141036;-66
2023/08/12 08:08:56;;;;;;;11.55;2.72;;;;;;;21.09;94.61;101154.32;5073124;56;1138679;-66
2023/08/12 08:14:02;;;;;;;6.15;4.10;;;;;;;21.28;92.45;101158.52;5079046;56;1141119;-66
2023/08/12 08:19:09;;;;;;;7.47;3.15;;;;;;;21.52;88.31;101153.06;5066130;56;1138569;-66
2023/08/12 08:24:14;;;;;;;4.66;2.92;;;;;;;21.85;89.09;101156.91;5142834;56;1138446;-66
2023/08/12 08:29:20;;;;;;;3.72;2.55;;;;;;;22.20;89.82;101159.09;5084060;56;1139080;-66
2023/08/12 08:34:26;;;;;;;5.37;2.60;;;;;;;22.59;88.25;101157.62;5072229;56;1138881;-66
2023/08/12 08:39:31;;;;;;;6.63;2.37;;;;;;;22.88;85.06;101161.44;5080339;56;1138368;-66
2023/08/12 08:44:41;;;;;;;8.33;2.80;;;;;;;23.10;84.26;101152.42;5043896;56;1138938;-65
2023/08/12 08:49:47;;;;;;;6.72;2.30;;;;;;;23.30;85.17;101156.77;4997957;57;1138764;-66
2023/08/12 08:54:53;;;;;;;4.20;2.35;;;;;;;23.49;80.41;101154.85;5043222;56;1138818;-66
2023/08/12 08:59:58;;;;;;;5.93;2.40;;;;;;;23.61;78.26;101153.38;5059701;56;1138752;-63
2023/08/12 09:05:05;;;;;;;5.53;2.70;;;;;;;23.69;77.88;101150.55;4996726;56;1138600;-66
2023/08/12 09:10:11;;;;;;;2.40;2.20;;;;;;;23.83;78.21;101136.17;4991410;56;1138798;-66
2023/08/12 09:15:18;;;;;;;6.37;2.75;;;;;;;24.00;76.96;101138.64;4960194;57;1138746;-67
2023/08/12 09:20:24;;;;;;;7.28;3.35;;;;;;;24.12;76.68;101132.56;4960243;57;1138781;-66
2023/08/12 09:25:32;;;;;;;4.40;2.23;;;;;;;24.26;71.04;101115.98;5018386;56;1138790;-67
2023/08/12 09:30:38;;;;;;;6.28;2.40;;;;;;;24.35;72.79;101120.22;5134006;56;1138809;-66
2023/08/12 09:35:50;;;;;;;2.12;2.00;;;;;;;24.52;70.66;101115.37;4935967;58;1138939;-66
2023/08/12 09:40:55;;;;;;;9.63;3.03;;;;;;;24.71;74.09;101112.51;4936561;57;1139023;-66
2023/08/12 09:46:01;;;;;;;6.28;2.47;;;;;;;24.94;75.97;101104.98;4950241;57;1138830;-66
2023/08/12 09:51:08;;;;;;;6.08;2.02;;;;;;;25.21;72.39;101092.44;4973834;57;1138630;-66
2023/08/12 09:56:15;;;;;;;6.50;2.70;;;;;;;25.46;70.83;101099.55;4922398;57;1138780;-67
2023/08/12 10:01:21;;;;;;;3.15;2.30;;;;;;;25.76;69.41;101089.25;4986722;57;1138955;-67
2023/08/12 10:06:27;;;;;;;6.65;2.50;;;;;;;25.76;69.41;101089.25;4970693;57;1138663;-66
2023/08/12 10:11:33;;;;;;;5.33;2.10;;;;;;;25.79;67.63;101069.88;5017214;57;1139001;-67
2023/08/12 10:16:39;;;;;;;3.80;2.35;;;;;;;25.98;70.96;101080.42;5052495;57;1138782;-66
2023/08/12 10:21:46;;;;;;;3.17;2.40;;;;;;;26.14;66.46;101076.80;4996226;57;1138716;-67
2023/08/12 10:26:56;;;;;;;5.22;2.37;;;;;;;26.30;66.98;101069.33;4984761;57;1138837;-67
2023/08/12 10:32:03;;;;;;;2.25;1.90;;;;;;;26.50;65.92;101062.03;5088023;56;1138770;-66
2023/08/12 10:37:11;;;;;;;3.35;1.90;;;;;;;26.66;64.00;101061.59;5024141;57;1138733;-67
2023/08/12 10:42:43;;;;;;;3.72;1.57;;;;;;;26.84;61.78;101052.27;5076725;56;1138907;-65
2023/08/12 10:48:18;;;;;;;7.00;1.80;;;;;;;26.92;61.88;101049.83;4988213;57;1138706;-66
2023/08/12 10:53:31;;;;;;;4.47;2.50;;;;;;;26.71;62.52;101050.11;4988208;57;1138954;-65
2023/08/12 10:58:46;;;;;;;6.37;4.08;;;;;;;26.51;63.53;101048.77;4922426;57;1138859;-65
2023/08/12 11:03:53;;;;;;;2.90;2.62;;;;;;;26.33;63.22;101044.50;5052053;57;1138789;-66
2023/08/12 11:08:59;;;;;;;2.30;2.10;;;;;;;26.10;63.46;101037.61;5055644;57;1138810;-65
2023/08/12 11:14:15;;;;;;;4.65;3.60;;;;;;;26.05;63.94;101030.61;4989513;57;1138591;-65
2023/08/12 11:19:21;;;;;;;5.12;2.17;;;;;;;26.17;66.90;101030.30;4837681;58;1138863;-66
2023/08/12 11:24:31;;;;;;;3.40;1.83;;;;;;;26.42;65.41;101031.90;4954444;57;1138942;-66
2023/08/12 11:29:35;;;;;;;5.42;1.87;;;;;;;26.72;66.53;101020.58;4910064;57;1138790;-65
2023/08/12 11:34:41;;;;;;;7.83;2.65;;;;;;;26.87;65.13;101016.56;4826832;57;1138877;-65
2023/08/12 11:39:47;;;;;;;2.42;2.08;;;;;;;26.93;65.31;101013.50;4855185;59;1138828;-65
2023/08/12 11:44:52;;;;;;;3.27;2.12;;;;;;;26.84;62.56;101004.77;4877720;58;1138977;-66
2023/08/12 11:49:58;;;;;;;11.28;3.75;;;;;;;26.89;63.93;100999.52;4840156;58;1138897;-66
2023/08/12 11:55:05;;;;;;;6.25;2.10;;;;;;;26.98;64.57;100998.80;4929888;58;1140927;-66
2023/08/12 12:00:18;;;;;;;4.50;2.40;;;;;;;26.98;62.60;100996.61;4883838;58;1138888;-65
2023/08/12 12:05:34;;;;;;;5.80;2.47;;;;;;;26.99;63.51;100994.20;4880284;58;1138750;-66
2023/08/12 12:10:39;;;;;;;8.23;2.65;;;;;;;27.15;63.84;100990.48;4899841;57;1139066;-66
2023/08/12 12:15:45;;;;;;;3.27;2.05;;;;;;;27.32;62.78;100986.73;5082792;55;1138821;-65
2023/08/12 12:21:00;;;;;;;3.17;2.05;;;;;;;27.54;62.05;100974.98;5077152;56;1139003;-65
2023/08/12 12:26:06;;;;;;;4.28;2.00;;;;;;;27.78;62.87;100970.69;5080968;56;1138559;-65
2023/08/12 12:31:11;;;;;;;2.85;2.30;;;;;;;28.16;62.64;100965.95;5044442;56;1138647;-66
2023/08/12 12:36:17;;;;;;;5.03;2.10;;;;;;;28.31;57.99;100955.58;5023947;56;1138541;-65
2023/08/12 12:41:23;;;;;;;2.15;1.95;;;;;;;28.45;58.45;100945.39;5076362;56;1138966;-65
2023/08/12 12:46:29;;;;;;;4.03;1.57;;;;;;;28.64;59.15;100942.98;5073758;56;1138747;-65
2023/08/12 12:51:34;;;;;;;2.00;1.87;;;;;;;28.92;56.33;100945.70;5057607;56;1138959;-66
2023/08/12 12:56:40;;;;;;;2.33;1.40;;;;;;;29.14;54.54;100941.97;5051985;56;1138664;-65
2023/08/12 13:01:46;;;;;;;2.02;1.20;;;;;;;29.16;52.87;100941.21;5074263;56;1139219;-66
2023/08/12 13:06:52;;;;;;;8.93;2.23;;;;;;;29.17;51.28;100933.34;5048683;56;1138868;-66
2023/08/12 13:11:58;;;;;;;3.75;2.70;;;;;;;29.08;53.56;100925.17;5061819;57;1138804;-66
2023/08/12 13:17:03;;;;;;;3.05;1.50;;;;;;;28.99;54.04;100930.12;5041711;57;1138597;-65
2023/08/12 13:22:09;;;;;;;7.28;5.33;;;;;;;28.83;52.03;100929.39;5041842;57;1138745;-65
2023/08/12 13:27:17;;;;;;;3.72;2.00;;;;;;;28.55;54.60;100913.05;5073040;56;1138840;-66
2023/08/12 13:32:22;;;;;;;9.80;1.37;;;;;;;28.34;53.46;100913.50;5051578;56;1138830;-66
2023/08/12 13:37:28;;;;;;;2.30;1.90;;;;;;;28.34;54.88;100908.05;5063148;56;1138816;-66
2023/08/12 13:42:33;;;;;;;4.42;1.67;;;;;;;28.40;54.35;100898.16;5062350;56;1138727;-66
2023/08/12 13:47:39;;;;;;;2.07;1.83;;;;;;;28.46;55.40;100893.99;5038023;57;1138738;-66
2023/08/12 13:52:55;;;;;;;4.70;1.77;;;;;;;28.73;57.53;100876.80;5036786;56;1138740;-66
2023/08/12 13:57:57;;;;;;;4.90;1.83;;;;;;;28.83;54.86;100877.66;5050288;56;1138746;-66
2023/08/12 14:03:02;;;;;;;5.40;2.10;;;;;;;28.81;54.84;100867.53;5062573;57;1138834;-66
2023/08/12 14:08:08;;;;;;;2.33;1.77;;;;;;;28.75;55.77;100857.52;5042779;57;1138967;-66
2023/08/12 14:13:14;;;;;;;1.45;1.35;;;;;;;28.79;56.06;100860.08;5042641;56;1139045;-65
2023/08/12 14:18:19;;;;;;;3.40;1.27;;;;;;;28.81;55.73;100857.47;5066707;57;1138766;-66
2023/08/12 14:23:25;;;;;;;3.30;1.62;;;;;;;28.80;54.48;100845.44;5053123;57;1138944;-66
2023/08/12 14:28:30;;;;;;;5.30;1.50;;;;;;;28.73;54.44;100837.32;5055284;56;1138762;-66
2023/08/12 14:33:37;;;;;;;9.38;1.50;;;;;;;28.63;55.25;100831.08;5104429;56;1138870;-66
2023/08/12 14:38:42;;;;;;;1.70;1.60;;;;;;;28.60;55.94;100819.81;5074252;56;1138696;-65
2023/08/12 14:43:48;;;;;;;3.85;1.98;;;;;;;28.63;56.68;100822.91;5064095;56;1138820;-66
2023/08/12 14:49:11;;;;;;;6.53;1.60;;;;;;;28.66;57.39;100822.98;5051902;56;1138949;-66
2023/08/12 14:54:17;;;;;;;6.87;1.70;;;;;;;28.69;58.01;100808.39;5073323;56;1138925;-66
2023/08/12 14:59:23;;;;;;;7.08;3.08;;;;;;;28.86;58.55;100803.16;5053354;56;1138888;-66
2023/08/12 15:04:28;;;;;;;2.55;2.08;;;;;;;28.95;58.54;100797.67;5054113;56;1138804;-66
2023/08/12 15:09:34;;;;;;;7.22;1.82;;;;;;;29.05;56.48;100784.83;5119373;56;1138780;-66
2023/08/12 15:14:40;;;;;;;1.90;1.80;;;;;;;29.02;55.60;100782.07;5053939;56;1138771;-66
2023/08/12 15:19:45;;;;;;;5.67;1.80;;;;;;;29.04;55.99;100775.00;5056717;56;1138787;-66
2023/08/12 15:24:52;;;;;;;3.10;1.52;;;;;;;29.07;54.99;100769.63;5138478;56;1139010;-67
2023/08/12 15:30:00;;;;;;;3.25;1.85;;;;;;;29.07;55.62;100765.53;5154005;56;1138426;-66
2023/08/12 15:35:06;;;;;;;10.10;1.92;;;;;;;28.99;54.44;100765.36;4986950;57;1138658;-66
2023/08/12 15:40:13;;;;;;;2.77;2.00;;;;;;;28.89;53.97;100771.89;5043534;56;1140842;-66
2023/08/12 15:45:19;;;;;;;8.63;1.92;;;;;;;28.84;55.48;100769.89;5101449;56;1138739;-66
2023/08/12 15:50:25;;;;;;;3.50;2.55;;;;;;;28.79;56.41;100767.52;5067307;56;1138959;-66
2023/08/12 15:55:30;;;;;;;3.15;2.27;;;;;;;28.67;57.10;100769.68;5045276;56;1139019;-66
2023/08/12 16:00:36;;;;;;;2.12;1.92;;;;;;;28.63;57.23;100774.45;5093813;55;1138899;-66
2023/08/12 16:05:44;;;;;;;3.80;1.82;;;;;;;28.60;57.85;100768.10;5050283;55;1138891;-66
2023/08/12 16:10:49;;;;;;;7.80;1.77;;;;;;;28.49;57.36;100764.81;5038566;56;1138905;-65
2023/08/12 16:15:55;;;;;;;6.70;2.58;;;;;;;28.41;58.21;100762.43;5058068;56;1138742;-66
2023/08/12 16:21:00;;;;;;;9.25;1.80;;;;;;;28.38;58.59;100766.97;5127686;56;1138708;-66
2023/08/12 16:26:06;;;;;;;7.35;2.25;;;;;;;28.30;58.92;100762.13;5132686;56;1139054;-66
2023/08/12 16:31:12;;;;;;;2.67;2.50;;;;;;;28.20;59.33;100761.02;5145590;55;1138967;-66
2023/08/12 16:36:18;;;;;;;3.37;3.10;;;;;;;28.14;59.43;100760.52;5171586;55;1138791;-66
2023/08/12 16:41:23;;;;;;;10.28;3.72;;;;;;;28.08;59.88;100754.66;5003082;57;1138901;-66
2023/08/12 16:46:29;;;;;;;4.55;3.72;;;;;;;28.00;60.07;100751.70;5110843;56;1140806;-65
2023/08/12 16:51:35;;;;;;;4.10;2.98;;;;;;;27.95;60.12;100750.22;4965169;57;1138870;-67
2023/08/12 16:56:40;;;;;;;6.35;4.78;;;;;;;27.89;60.52;100742.42;5112993;55;1138829;-66
2023/08/12 17:01:47;;;;;;;13.28;4.90;;;;;;;27.85;60.70;100737.66;5219333;55;1138735;-66
2023/08/12 17:06:53;;;;;;;10.67;4.40;;;;;;;27.79;61.33;100733.98;5086681;55;1140960;-66
2023/08/12 17:11:59;;;;;;;9.83;4.62;;;;;;;27.76;62.62;100737.15;5119609;55;1140989;-65
2023/08/12 17:17:05;;;;;;;21.77;3.80;;;;;;;27.72;63.11;100734.57;5148795;55;1138940;-65
2023/08/12 17:22:11;;;;;;;6.75;3.27;;;;;;;27.68;63.92;100725.73;5148133;55;1140862;-65
2023/08/12 17:27:16;;;;;;;5.35;3.70;;;;;;;27.59;64.35;100724.69;5129276;55;1138785;-65
2023/08/12 17:32:22;;;;;;;13.30;3.83;;;;;;;27.55;66.26;100722.60;5084420;56;1139044;-66
2023/08/12 17:37:28;;;;;;;10.65;3.75;;;;;;;27.50;68.59;100719.19;4875168;58;1140636;-65
2023/08/12 17:42:34;;;;;;;18.25;4.80;;;;;;;27.43;70.00;100706.22;4937571;58;1141002;-66
2023/08/12 18:13:46;;;;;;;24.57;4.42;;;;;;;26.94;71.58;100697.06;5192933;55;47444;-64
2023/08/12 18:18:52;;;;;;;6.85;3.58;;;;;;;26.51;71.42;100692.05;4872348;56;1149300;-65
2023/08/12 18:23:58;;;;;;;11.57;3.85;;;;;;;26.47;71.27;100695.72;5124897;55;1138731;-65
2023/08/12 18:29:03;;;;;;;9.45;3.90;;;;;;;26.47;71.06;100697.59;5124219;55;1212731;-64
2023/08/12 18:34:09;;;;;;;9.18;3.52;;;;;;;26.43;70.64;100705.33;5110530;55;1138717;-65
2023/08/12 18:39:15;;;;;;;6.92;3.80;;;;;;;26.27;69.37;100709.39;5145739;55;1138694;-65
2023/08/12 18:44:20;;;;;;;7.70;3.40;;;;;;;26.27;69.37;100709.39;5134862;55;1139099;-65
2023/08/12 18:49:26;;;;;;;7.55;4.12;;;;;;;26.24;69.90;100714.41;5154960;55;1139152;-64
2023/08/12 18:54:32;;;;;;;12.60;4.33;;;;;;;26.19;69.72;100711.50;5085568;55;1138881;-64
2023/08/12 18:59:38;;;;;;;11.18;3.40;;;;;;;26.13;69.43;100709.11;5029336;56;1140897;-65
2023/08/12 19:04:43;;;;;;;14.47;3.08;;;;;;;26.06;69.25;100708.86;5115903;55;1140927;-64
2023/08/12 19:09:49;;;;;;;8.95;3.45;;;;;;;26.03;69.40;100705.22;5220415;55;1140753;-65
2023/08/12 19:14:55;;;;;;;18.70;3.70;;;;;;;26.00;69.11;100705.12;5240883;54;1138408;-64
2023/08/12 19:20:00;;;;;;;11.30;4.42;;;;;;;25.96;69.28;100697.13;5167019;55;1239083;-65
2023/08/12 19:25:06;;;;;;;10.90;3.40;;;;;;;25.89;69.41;100689.54;5188961;55;1140965;-64
2023/08/12 19:30:13;;;;;;;5.40;2.90;;;;;;;25.85;69.26;100691.00;5196582;55;1141069;-64
2023/08/12 19:35:20;;;;;;;7.80;3.22;;;;;;;25.79;68.63;100679.69;5254120;55;1245195;-65
2023/08/12 19:40:26;;;;;;;9.70;3.20;;;;;;;25.74;68.56;100675.42;5256496;54;1205243;-65
2023/08/12 19:45:31;;;;;;;8.35;4.15;;;;;;;25.71;67.78;100677.20;5226337;55;1238263;-65
2023/08/12 19:50:37;;;;;;;9.43;3.22;;;;;;;25.71;67.95;100669.08;5166494;55;1236318;-65
2023/08/12 19:55:43;;;;;;;15.17;2.87;;;;;;;25.68;67.33;100666.27;5167167;55;1252308;-65
2023/08/12 20:00:48;;;;;;;6.95;2.72;;;;;;;25.64;67.29;100662.34;5183391;55;1251682;-65
2023/08/12 20:05:54;;;;;;;9.73;2.80;;;;;;;25.63;67.63;100658.49;5160427;55;1251261;-65
2023/08/12 20:11:00;;;;;;;11.68;2.92;;;;;;;25.57;67.45;100654.72;5220241;55;1253711;-65
2023/08/12 20:16:06;;;;;;;19.40;3.22;;;;;;;25.51;67.54;100646.11;5291032;54;1141073;-64
2023/08/12 20:21:11;;;;;;;9.08;3.00;;;;;;;25.43;67.80;100649.87;5277143;54;1251778;-64
2023/08/12 20:26:18;;;;;;;7.28;2.40;;;;;;;25.42;68.08;100660.91;5243753;54;1138996;-66
2023/08/12 20:31:24;;;;;;;4.22;2.52;;;;;;;25.42;68.47;100655.49;5219714;54;1138865;-64
2023/08/12 20:36:29;;;;;;;7.75;3.12;;;;;;;25.42;68.26;100654.14;5276365;54;1139157;-65
2023/08/12 20:41:37;;;;;;;3.00;2.27;;;;;;;25.37;68.47;100650.70;5239606;54;1138955;-64
2023/08/12 20:46:47;;;;;;;8.68;2.55;;;;;;;25.36;68.75;100650.95;5268048;54;1139036;-65
2023/08/12 20:51:53;;;;;;;10.68;2.95;;;;;;;25.32;68.70;100652.41;5299882;54;1138973;-64
2023/08/12 20:57:01;;;;;;;3.87;2.60;;;;;;;25.31;68.89;100654.80;5229140;54;1141024;-64
2023/08/12 21:02:06;;;;;;;8.95;2.65;;;;;;;25.27;68.77;100653.03;5224234;55;1138799;-65
2023/08/12 21:07:13;;;;;;;12.33;3.35;;;;;;;25.24;68.98;100648.03;5277839;54;1138895;-67
2023/08/12 21:12:19;;;;;;;7.85;2.33;;;;;;;25.23;69.38;100642.30;5239378;54;1249773;-67
2023/08/12 21:17:24;;;;;;;3.70;2.83;;;;;;;25.19;69.49;100651.39;5251639;54;1220960;-64
2023/08/12 21:22:30;;;;;;;5.17;2.60;;;;;;;25.16;69.61;100648.27;5251871;55;1138803;-64
2023/08/12 21:27:36;;;;;;;4.53;3.02;;;;;;;25.10;69.90;100642.34;5168243;54;1138793;-64
2023/08/12 21:32:42;;;;;;;2.90;2.55;;;;;;;25.06;70.11;100640.56;5166179;55;1248855;-64
2023/08/12 21:37:47;;;;;;;3.87;2.95;;;;;;;25.00;70.35;100636.53;5228423;55;1180347;-64
2023/08/12 21:42:53;;;;;;;7.58;2.60;;;;;;;24.95;70.67;100627.69;5258136;54;1138919;-64
2023/08/12 21:48:00;;;;;;;4.37;2.60;;;;;;;24.94;70.81;100626.53;5257690;54;1138749;-65
2023/08/12 21:53:05;;;;;;;5.50;3.02;;;;;;;24.93;70.93;100619.42;5209766;55;1138870;-64
2023/08/12 21:58:11;;;;;;;8.95;3.00;;;;;;;24.91;71.08;100619.63;5168430;55;1138770;-64
2023/08/12 22:03:17;;;;;;;3.77;3.25;;;;;;;24.91;71.57;100627.75;5235539;55;1138859;-65
2023/08/12 22:08:22;;;;;;;8.88;3.92;;;;;;;24.81;72.31;100627.35;5205539;55;1138859;-65
2023/08/12 22:13:28;;;;;;;8.60;3.67;;;;;;;24.81;73.48;100624.13;5237989;54;1138831;-64
2023/08/12 22:18:34;;;;;;;6.03;3.80;;;;;;;24.75;73.92;100618.19;5226676;54;1139027;-64
2023/08/12 22:23:40;;;;;;;6.83;3.65;;;;;;;24.70;74.42;100612.59;5224454;54;1138822;-63
2023/08/12 22:28:46;;;;;;;6.00;3.40;;;;;;;24.59;74.53;100605.12;5243345;54;1138754;-65
2023/08/12 22:33:51;;;;;;;8.48;5.08;;;;;;;24.50;75.11;100599.59;5230821;54;1138832;-64
2023/08/12 22:38:57;;;;;;;8.28;4.42;;;;;;;24.35;75.77;100621.41;5228299;54;1138822;-64
2023/08/12 22:44:03;;;;;;;8.75;3.80;;;;;;;23.90;76.92;100646.43;5261414;54;1138765;-64
2023/08/12 22:49:08;;;;;;;6.80;3.95;;;;;;;23.64;77.86;100628.27;5233904;54;1138589;-65
2023/08/12 22:54:14;;;;;;;10.88;4.10;;;;;;;23.62;78.96;100617.66;5258007;54;1138983;-65
2023/08/12 22:59:21;;;;;;;8.94;3.94;;;;;;;23.59;78.97;100654.52;5182330;55;1140896;-66
2023/08/12 23:04:27;;;;;;;14.57;5.00;;;;;;;23.60;79.23;100661.58;5185599;55;1194590;-65
2023/08/12 23:09:32;;;;;;;7.83;4.20;;;;;;;23.67;79.64;100662.46;5168111;55;1210987;-65
2023/08/12 23:14:38;;;;;;;9.38;3.85;;;;;;;23.60;79.56;100648.59;5240181;54;1159283;-64
2023/08/12 23:19:44;;;;;;;7.75;3.92;;;;;;;23.62;79.81;100648.72;5188814;55;1138759;-64
2023/08/12 23:24:49;;;;;;;8.78;4.12;;;;;;;23.65;80.19;100637.52;5168046;55;1138855;-64
2023/08/12 23:29:55;;;;;;;12.25;4.58;;;;;;;23.65;80.52;100615.08;5169171;55;1138599;-65